createdAt,value
2022-09-14T00:01:48.815Z,100056.59
2022-09-14T00:04:20.449Z,100059.19
2022-09-14T00:06:51.895Z,100060.13
2022-09-14T00:09:24.447Z,99997.59
2022-09-14T00:11:56.245Z,100049.91
2022-09-14T00:14:27.673Z,100035.16
2022-09-14T00:16:59.106Z,100044.97
2022-09-14T00:19:30.458Z,99995.91
2022-09-14T00:22:02.030Z,100044.75
2022-09-14T00:24:34.989Z,100023.06
2022-09-14T00:27:06.281Z,100030.06
2022-09-14T00:29:37.699Z,100025.78
2022-09-14T00:32:09.069Z,100008.44
2022-09-14T00:34:40.475Z,100004.28
2022-09-14T00:37:12.251Z,99997.28
2022-09-14T00:39:43.686Z,99961.13
2022-09-14T00:42:19.373Z,99985.44
2022-09-14T00:44:50.666Z,100009.81
2022-09-14T00:47:22.184Z,100001.41
2022-09-14T00:49:53.909Z,99963.63
2022-09-14T00:52:28.709Z,100016.69
2022-09-14T00:55:04.039Z,100012.41
2022-09-14T00:57:40.590Z,100015.13
2022-09-14T01:00:15.309Z,99985.69
2022-09-14T01:02:46.846Z,100006.63
2022-09-14T01:05:19.261Z,100016.53
2022-09-14T01:08:09.439Z,100025.66
2022-09-14T01:10:58.134Z,100003.00
2022-09-14T01:13:41.796Z,99998.19
2022-09-14T01:16:26.317Z,100007.69
2022-09-14T01:19:01.742Z,99959.31
2022-09-14T01:21:38.128Z,100001.09
2022-09-14T01:24:18.429Z,100009.31
2022-09-14T01:27:16.954Z,100011.97
2022-09-14T01:29:58.731Z,100010.38
2022-09-14T01:32:40.937Z,100001.69
2022-09-14T01:35:29.378Z,99983.84
2022-09-14T01:38:07.623Z,100013.66
2022-09-14T01:40:49.321Z,100025.00
2022-09-14T01:43:36.914Z,99978.31
2022-09-14T01:46:25.823Z,100018.41
2022-09-14T01:49:14.258Z,100015.91
2022-09-14T01:51:48.821Z,99994.34
2022-09-14T01:54:28.920Z,100027.38
2022-09-14T01:57:16.460Z,99990.59
2022-09-14T01:59:50.758Z,100013.00
2022-09-14T02:02:36.976Z,99999.59
2022-09-14T02:05:21.677Z,99955.94
2022-09-14T02:07:54.043Z,99985.13
2022-09-14T02:10:25.991Z,100005.72
2022-09-14T02:12:57.834Z,100005.63
2022-09-14T02:15:29.289Z,99984.84
2022-09-14T02:18:00.778Z,99960.59
2022-09-14T02:20:39.271Z,100006.13
2022-09-14T02:23:10.664Z,100012.50
2022-09-14T02:25:42.017Z,100010.94
2022-09-14T02:28:14.229Z,99984.91
2022-09-14T02:31:11.540Z,100007.69
2022-09-14T02:33:56.043Z,99980.06
2022-09-14T02:36:39.522Z,99958.47
2022-09-14T02:39:23.835Z,99948.25
2022-09-14T02:42:13.038Z,100010.19
2022-09-14T02:45:08.969Z,100005.97
2022-09-14T02:47:58.787Z,100004.38
2022-09-14T02:50:39.591Z,99962.81
2022-09-14T02:53:24.517Z,99963.78
2022-09-14T02:55:59.990Z,99988.00
2022-09-14T02:58:40.089Z,99978.72
2022-09-14T03:01:17.725Z,99995.44
2022-09-14T03:03:49.344Z,99986.81
2022-09-14T03:06:20.982Z,99952.81
2022-09-14T03:08:52.501Z,99975.47
2022-09-14T03:11:23.955Z,99994.66
2022-09-14T03:13:55.315Z,99932.06
2022-09-14T03:16:27.763Z,99974.59
2022-09-14T03:18:59.153Z,99965.84
2022-09-14T03:21:30.517Z,99975.47
2022-09-14T03:24:03.109Z,99976.97
2022-09-14T03:26:36.905Z,99923.81
2022-09-14T03:29:08.296Z,99968.13
2022-09-14T03:31:39.634Z,99944.78
2022-09-14T03:34:11.048Z,99947.28
2022-09-14T03:36:42.488Z,99902.16
2022-09-14T03:39:14.370Z,99956.94
2022-09-14T03:41:45.696Z,99962.38
2022-09-14T03:44:17.142Z,99949.19
2022-09-14T03:46:48.533Z,99923.94
2022-09-14T03:49:19.914Z,99934.44
2022-09-14T03:51:51.322Z,99937.94
2022-09-14T03:54:23.430Z,99876.94
2022-09-14T03:56:54.905Z,99930.06
2022-09-14T03:59:26.625Z,99927.72
2022-09-14T04:01:57.962Z,99952.44
2022-09-14T04:04:29.444Z,99939.69
2022-09-14T04:07:00.744Z,99956.34
2022-09-14T04:09:32.231Z,99947.75
2022-09-14T04:12:03.786Z,99920.06
2022-09-14T04:14:35.232Z,99948.69
2022-09-14T04:17:06.668Z,99905.19
2022-09-14T04:19:41.500Z,99951.03
2022-09-14T04:22:13.017Z,99950.09
2022-09-14T04:24:44.463Z,99963.94
2022-09-14T04:27:16.019Z,99962.75
2022-09-14T04:29:49.845Z,99957.38
2022-09-14T04:32:22.232Z,99950.06
2022-09-14T04:34:53.901Z,99949.69
2022-09-14T04:37:25.302Z,99904.22
2022-09-14T04:39:56.758Z,99965.91
2022-09-14T04:42:31.051Z,99938.66
2022-09-14T04:45:02.410Z,99942.94
2022-09-14T04:47:33.813Z,99957.59
2022-09-14T04:50:06.637Z,99939.91
2022-09-14T04:52:38.030Z,99952.03
2022-09-14T04:55:10.222Z,99934.13
2022-09-14T04:57:41.629Z,99941.06
2022-09-14T05:00:13.559Z,99935.63
2022-09-14T05:02:45.003Z,99931.19
2022-09-14T05:05:16.382Z,99942.06
2022-09-14T05:07:47.769Z,99943.59
2022-09-14T05:10:19.349Z,99943.34
2022-09-14T05:12:50.819Z,99908.47
2022-09-14T05:15:22.214Z,99922.78
2022-09-14T05:17:53.678Z,99944.13
2022-09-14T05:20:25.147Z,99900.50
2022-09-14T05:22:56.630Z,99949.72
2022-09-14T05:25:28.092Z,99948.50
2022-09-14T05:27:59.723Z,99938.66
2022-09-14T05:30:32.193Z,99945.41
2022-09-14T05:33:03.554Z,99913.06
2022-09-14T05:35:35.980Z,99939.56
2022-09-14T05:38:08.376Z,99933.03
2022-09-14T05:40:39.882Z,99919.44
2022-09-14T05:43:11.515Z,99938.44
2022-09-14T05:45:43.037Z,99916.97
2022-09-14T05:48:14.513Z,99916.56
2022-09-14T05:50:46.179Z,99925.63
2022-09-14T05:53:17.584Z,99888.09
2022-09-14T05:55:49.014Z,99916.16
2022-09-14T05:58:20.299Z,99922.81
2022-09-14T06:00:51.724Z,99891.47
2022-09-14T06:03:23.021Z,99912.66
2022-09-14T06:05:57.872Z,99939.34
2022-09-14T06:08:29.391Z,99930.53
2022-09-14T06:11:28.699Z,99931.75
2022-09-14T06:14:00.585Z,99926.13
2022-09-14T06:16:32.048Z,99928.50
2022-09-14T06:19:04.342Z,99937.75
2022-09-14T06:21:35.917Z,99945.25
2022-09-14T06:24:07.389Z,99897.47
2022-09-14T06:26:40.031Z,99933.25
2022-09-14T06:29:11.537Z,99946.31
2022-09-14T06:31:42.973Z,99937.34
2022-09-14T06:34:14.451Z,99941.97
2022-09-14T06:36:45.933Z,99939.25
2022-09-14T06:39:17.597Z,99940.97
2022-09-14T06:41:48.922Z,99949.41
2022-09-14T06:44:20.408Z,99937.13
2022-09-14T06:46:51.898Z,99925.34
2022-09-14T06:49:23.561Z,99933.56
2022-09-14T06:51:57.356Z,99931.53
2022-09-14T06:54:29.255Z,99933.75
2022-09-14T06:57:00.674Z,99925.16
2022-09-14T06:59:32.116Z,99932.00
2022-09-14T07:02:03.609Z,99938.94
2022-09-14T07:04:36.819Z,99889.13
2022-09-14T07:07:08.271Z,99939.44
2022-09-14T07:09:39.681Z,99926.09
2022-09-14T07:12:11.655Z,99909.28
2022-09-14T07:14:43.053Z,99923.22
2022-09-14T07:17:16.622Z,99930.69
2022-09-14T07:19:48.016Z,99931.63
2022-09-14T07:22:19.343Z,99922.31
2022-09-14T07:24:50.919Z,99937.56
2022-09-14T07:27:22.233Z,99935.69
2022-09-14T07:29:54.150Z,99944.09
2022-09-14T07:32:25.877Z,99950.75
2022-09-14T07:34:57.582Z,99903.56
2022-09-14T07:37:29.851Z,99945.53
2022-09-14T07:40:01.504Z,99930.75
2022-09-14T07:42:33.402Z,99948.13
2022-09-14T07:45:06.171Z,99944.09
2022-09-14T07:47:37.975Z,99944.53
2022-09-14T07:50:10.012Z,99951.88
2022-09-14T07:52:41.420Z,99949.38
2022-09-14T07:55:12.864Z,99931.78
2022-09-14T07:57:56.247Z,99935.13
2022-09-14T08:00:28.434Z,99911.19
2022-09-14T08:03:00.017Z,99932.75
2022-09-14T08:05:31.561Z,99899.00
2022-09-14T08:08:03.056Z,99946.22
2022-09-14T08:10:35.626Z,99935.31
2022-09-14T08:13:07.101Z,99950.88
2022-09-14T08:15:39.656Z,99944.56
2022-09-14T08:18:12.018Z,99948.31
2022-09-14T08:20:43.322Z,99934.00
2022-09-14T08:23:14.634Z,99882.38
2022-09-14T08:25:46.093Z,99918.50
2022-09-14T08:28:17.509Z,99924.34
2022-09-14T08:30:50.026Z,99921.03
2022-09-14T08:33:21.488Z,99927.25
2022-09-14T08:36:00.093Z,99915.91
2022-09-14T08:38:31.569Z,99867.91
2022-09-14T08:41:16.141Z,99883.78
2022-09-14T08:43:48.044Z,99899.22
2022-09-14T08:46:36.323Z,99892.50
2022-09-14T08:49:21.651Z,99878.44
2022-09-14T08:51:53.207Z,99914.50
2022-09-14T08:54:25.223Z,99892.41
2022-09-14T08:57:17.425Z,99902.25
2022-09-14T09:00:14.083Z,99895.09
2022-09-14T09:03:19.664Z,99902.09
2022-09-14T09:06:21.376Z,99911.88
2022-09-14T09:09:27.270Z,99908.00
2022-09-14T09:11:59.859Z,99908.78
2022-09-14T09:14:40.078Z,99904.81
2022-09-14T09:17:20.172Z,99893.81
2022-09-14T09:20:01.921Z,99900.50
2022-09-14T09:22:41.037Z,99882.38
2022-09-14T09:25:20.686Z,99882.38
2022-09-14T09:28:00.531Z,99896.94
2022-09-14T09:30:40.184Z,99883.16
2022-09-14T09:33:18.084Z,99862.31
2022-09-14T09:35:51.457Z,99901.47
2022-09-14T09:38:26.737Z,99900.00
2022-09-14T09:41:00.758Z,99899.31
2022-09-14T09:43:49.236Z,99869.84
2022-09-14T09:46:22.403Z,99878.31
2022-09-14T09:48:54.358Z,99880.59
2022-09-14T09:51:28.764Z,99867.72
2022-09-14T09:54:07.105Z,99880.13
2022-09-14T09:56:50.655Z,99868.47
2022-09-14T09:59:37.886Z,99838.22
2022-09-14T10:02:29.268Z,99819.44
2022-09-14T10:05:04.627Z,99832.72
2022-09-14T10:07:40.177Z,99860.22
2022-09-14T10:10:14.014Z,99869.66
2022-09-14T10:12:48.286Z,99856.38
2022-09-14T10:15:30.700Z,99852.44
2022-09-14T10:18:11.132Z,99859.06
2022-09-14T10:21:02.617Z,99848.22
2022-09-14T10:23:39.340Z,99851.22
2022-09-14T10:26:10.643Z,99871.16
2022-09-14T10:28:48.460Z,99858.16
2022-09-14T10:31:32.467Z,99809.63
2022-09-14T10:34:17.357Z,99851.50
2022-09-14T10:36:59.452Z,99847.53
2022-09-14T10:39:41.554Z,99847.31
2022-09-14T10:42:25.334Z,99827.56
2022-09-14T10:45:21.454Z,99844.63
2022-09-14T10:48:17.033Z,99818.59
2022-09-14T10:50:57.206Z,99825.72
2022-09-14T10:54:09.590Z,99845.13
2022-09-14T10:57:08.264Z,99845.56
2022-09-14T11:00:36.107Z,99864.81
2022-09-14T11:03:46.189Z,99848.06
2022-09-14T11:06:23.562Z,99842.09
2022-09-14T11:09:17.403Z,99843.69
2022-09-14T11:11:49.792Z,99846.50
2022-09-14T11:14:48.993Z,99849.44
2022-09-14T11:17:57.834Z,99847.13
2022-09-14T11:20:51.687Z,99836.34
2022-09-14T11:23:37.631Z,99832.19
2022-09-14T11:26:31.519Z,99795.78
2022-09-14T11:29:08.637Z,99835.22
2022-09-14T11:32:19.327Z,99840.34
2022-09-14T11:34:57.781Z,99838.06
2022-09-14T11:37:52.872Z,99843.84
2022-09-14T11:40:28.906Z,99845.41
2022-09-14T11:43:28.000Z,99841.72
2022-09-14T11:46:15.795Z,99844.53
2022-09-14T11:48:57.111Z,99837.41
2022-09-14T11:51:34.348Z,99830.81
2022-09-14T11:54:20.455Z,99814.97
2022-09-14T11:57:01.914Z,99806.66
2022-09-14T11:59:38.009Z,99830.16
2022-09-14T12:02:27.625Z,99825.16
2022-09-14T12:05:05.323Z,99823.13
2022-09-14T12:07:39.588Z,99829.53
2022-09-14T12:10:13.701Z,99836.19
2022-09-14T12:12:47.484Z,99823.50
2022-09-14T12:15:24.800Z,99825.97
2022-09-14T12:18:05.534Z,99822.69
2022-09-14T12:21:01.381Z,99821.06
2022-09-14T12:23:42.957Z,99822.88
2022-09-14T12:26:17.768Z,99830.00
2022-09-14T12:28:52.255Z,99829.63
2022-09-14T12:31:57.472Z,99826.88
2022-09-14T12:34:32.186Z,99830.88
2022-09-14T12:37:25.192Z,99832.19
2022-09-14T12:40:36.465Z,99831.38
2022-09-14T12:43:39.178Z,99830.75
2022-09-14T12:46:19.882Z,99833.16
2022-09-14T12:48:58.489Z,99824.22
2022-09-14T12:51:36.890Z,99833.22
2022-09-14T12:54:08.462Z,99827.59
2022-09-14T12:56:39.838Z,99839.66
2022-09-14T12:59:24.339Z,99826.47
2022-09-14T13:02:30.008Z,99841.19
2022-09-14T13:05:04.724Z,99813.72
2022-09-14T13:07:36.575Z,99806.34
2022-09-14T13:10:16.841Z,99814.28
2022-09-14T13:12:49.365Z,99805.91
2022-09-14T13:15:28.617Z,99824.16
2022-09-14T13:18:18.122Z,99824.53
2022-09-14T13:20:53.267Z,99817.16
2022-09-14T13:23:39.452Z,99817.56
2022-09-14T13:26:21.154Z,99787.00
2022-09-14T13:28:54.426Z,99803.91
2022-09-14T13:31:38.782Z,99773.69
2022-09-14T13:34:38.631Z,99791.00
2022-09-14T13:37:14.243Z,99789.44
2022-09-14T13:39:55.436Z,99748.88
2022-09-14T13:42:29.344Z,99787.31
2022-09-14T13:45:00.872Z,99790.94
2022-09-14T13:47:39.704Z,99781.31
2022-09-14T13:50:13.452Z,99746.09
2022-09-14T13:53:01.924Z,99783.31
2022-09-14T13:55:34.106Z,99783.59
2022-09-14T13:58:22.186Z,99788.50
2022-09-14T14:00:55.160Z,99737.66
2022-09-14T14:03:31.459Z,99786.75
2022-09-14T14:06:20.120Z,99774.94
2022-09-14T14:08:54.506Z,99769.47
2022-09-14T14:11:41.801Z,99745.28
2022-09-14T14:14:19.785Z,99731.94
2022-09-14T14:17:13.086Z,99761.78
2022-09-14T14:19:44.463Z,99770.06
2022-09-14T14:22:15.781Z,99759.59
2022-09-14T14:25:12.401Z,99748.84
2022-09-14T14:27:46.710Z,99714.94
2022-09-14T14:30:21.306Z,99747.84
2022-09-14T14:32:54.817Z,99723.31
2022-09-14T14:35:30.875Z,99717.47
2022-09-14T14:38:02.167Z,99735.25
2022-09-14T14:40:34.797Z,99728.41
2022-09-14T14:43:08.073Z,99721.56
2022-09-14T14:45:39.443Z,99727.00
2022-09-14T14:48:11.626Z,99730.06
2022-09-14T14:50:44.508Z,99722.81
2022-09-14T14:53:15.929Z,99720.81
2022-09-14T14:55:48.191Z,99728.44
2022-09-14T14:58:21.389Z,99684.47
2022-09-14T15:00:52.968Z,99705.88
2022-09-14T15:03:24.573Z,99729.44
2022-09-14T15:05:56.065Z,99719.13
2022-09-14T15:08:27.577Z,99714.44
2022-09-14T15:10:59.148Z,99720.56
2022-09-14T15:13:30.601Z,99701.13
2022-09-14T15:16:02.370Z,99678.88
2022-09-14T15:18:34.007Z,99707.72
2022-09-14T15:21:06.151Z,99698.13
2022-09-14T15:23:37.944Z,99702.50
2022-09-14T15:26:09.557Z,99706.06
2022-09-14T15:28:40.917Z,99650.75
2022-09-14T15:31:13.247Z,99688.84
2022-09-14T15:33:44.706Z,99691.94
2022-09-14T15:36:35.913Z,99692.47
2022-09-14T15:39:09.915Z,99676.88
2022-09-14T15:41:42.168Z,99699.13
2022-09-14T15:44:13.583Z,99704.44
2022-09-14T15:46:46.781Z,99697.75
2022-09-14T15:49:23.370Z,99689.03
2022-09-14T15:51:56.438Z,99693.34
2022-09-14T15:54:32.076Z,99676.66
2022-09-14T15:57:06.183Z,99703.88
2022-09-14T15:59:37.876Z,99689.53
2022-09-14T16:02:12.244Z,99685.00
2022-09-14T16:04:43.653Z,99688.88
2022-09-14T16:07:16.065Z,99701.78
2022-09-14T16:09:47.454Z,99698.56
2022-09-14T16:12:18.776Z,99703.22
2022-09-14T16:14:50.098Z,99677.09
2022-09-14T16:17:21.649Z,99699.34
2022-09-14T16:19:53.051Z,99685.91
2022-09-14T16:22:30.246Z,99697.22
2022-09-14T16:25:01.601Z,99690.97
2022-09-14T16:27:33.187Z,99689.25
2022-09-14T16:30:07.637Z,99688.91
2022-09-14T16:32:39.195Z,99692.34
2022-09-14T16:35:10.534Z,99686.22
2022-09-14T16:37:41.937Z,99689.66
2022-09-14T16:40:13.828Z,99669.53
2022-09-14T16:42:46.931Z,99649.13
2022-09-14T16:45:18.319Z,99686.22
2022-09-14T16:47:49.990Z,99680.31
2022-09-14T16:50:21.360Z,99686.13
2022-09-14T16:52:52.676Z,99688.72
2022-09-14T16:55:24.079Z,99680.75
2022-09-14T16:57:55.417Z,99667.97
2022-09-14T17:00:26.949Z,99674.97
2022-09-14T17:02:58.294Z,99669.50
2022-09-14T17:05:29.647Z,99693.19
2022-09-14T17:08:01.227Z,99682.97
2022-09-14T17:10:36.106Z,99675.44
2022-09-14T17:13:07.780Z,99679.50
2022-09-14T17:15:39.115Z,99681.66
2022-09-14T17:18:10.492Z,99648.94
2022-09-14T17:20:52.314Z,99665.63
2022-09-14T17:23:23.825Z,99678.53
2022-09-14T17:25:55.659Z,99672.72
2022-09-14T17:28:28.567Z,99678.84
2022-09-14T17:31:01.834Z,99691.63
2022-09-14T17:33:36.389Z,99686.44
2022-09-14T17:36:08.336Z,99653.56
2022-09-14T17:38:41.468Z,99653.03
2022-09-14T17:41:15.963Z,99686.19
2022-09-14T17:43:52.931Z,99697.25
2022-09-14T17:46:25.754Z,99690.09
2022-09-14T17:48:59.810Z,99701.25
2022-09-14T17:51:32.704Z,99699.34
2022-09-14T17:54:04.280Z,99681.75
2022-09-14T17:56:36.603Z,99637.53
2022-09-14T17:59:14.757Z,99667.63
2022-09-14T18:01:46.641Z,99692.53
2022-09-14T18:04:18.427Z,99687.94
2022-09-14T18:06:50.130Z,99679.16
2022-09-14T18:09:24.210Z,99653.47
2022-09-14T18:11:57.427Z,99687.56
2022-09-14T18:14:28.890Z,99641.56
2022-09-14T18:17:00.347Z,99686.50
2022-09-14T18:19:31.949Z,99688.59
2022-09-14T18:22:03.448Z,99691.75
2022-09-14T18:24:35.223Z,99685.13
2022-09-14T18:27:06.692Z,99690.75
2022-09-14T18:29:39.129Z,99685.78
2022-09-14T18:32:10.490Z,99687.19
2022-09-14T18:34:41.905Z,99690.81
2022-09-14T18:37:14.030Z,99688.41
2022-09-14T18:39:46.107Z,99694.91
2022-09-14T18:42:17.649Z,99690.59
2022-09-14T18:44:53.677Z,99688.34
2022-09-14T18:47:25.245Z,99701.56
2022-09-14T18:49:57.196Z,99703.84
2022-09-14T18:52:28.707Z,99696.34
2022-09-14T18:55:00.129Z,99663.97
2022-09-14T18:57:32.056Z,99718.78
2022-09-14T19:00:04.991Z,99700.06
2022-09-14T19:02:36.444Z,99696.38
2022-09-14T19:05:08.667Z,99704.41
2022-09-14T19:07:39.977Z,99696.19
2022-09-14T19:10:11.865Z,99694.72
2022-09-14T19:12:43.485Z,99692.56
2022-09-14T19:15:15.141Z,99673.13
2022-09-14T19:17:46.499Z,99682.25
2022-09-14T19:20:19.382Z,99688.47
2022-09-14T19:22:52.162Z,99669.28
2022-09-14T19:25:23.555Z,99697.41
2022-09-14T19:27:55.066Z,99683.75
2022-09-14T19:30:26.390Z,99698.22
2022-09-14T19:32:59.904Z,99694.94
2022-09-14T19:35:32.387Z,99681.59
2022-09-14T19:38:03.781Z,99680.59
2022-09-14T19:40:35.215Z,99697.72
2022-09-14T19:43:06.703Z,99702.53
2022-09-14T19:45:38.536Z,99691.38
2022-09-14T19:48:09.986Z,99699.69
2022-09-14T19:50:41.589Z,99707.00
2022-09-14T19:53:12.946Z,99669.22
2022-09-14T19:55:44.394Z,99690.34
2022-09-14T19:58:15.960Z,99676.06
2022-09-14T20:00:56.401Z,99694.47
2022-09-14T20:03:27.776Z,99689.56
2022-09-14T20:06:12.574Z,99663.72
2022-09-14T20:08:44.065Z,99678.56
2022-09-14T20:11:19.999Z,99691.75
2022-09-14T20:13:56.569Z,99648.88
2022-09-14T20:16:37.115Z,99637.72
2022-09-14T20:19:14.480Z,99687.44
2022-09-14T20:21:47.396Z,99699.84
2022-09-14T20:24:25.339Z,99663.75
2022-09-14T20:26:59.574Z,99654.44
2022-09-14T20:29:33.942Z,99700.84
2022-09-14T20:32:06.105Z,99704.75
2022-09-14T20:34:37.541Z,99686.88
2022-09-14T20:37:08.808Z,99672.66
2022-09-14T20:39:40.102Z,99702.09
2022-09-14T20:42:11.474Z,99652.28
2022-09-14T20:44:42.758Z,99688.81
2022-09-14T20:47:14.143Z,99673.66
2022-09-14T20:49:45.565Z,99695.53
2022-09-14T20:52:16.907Z,99659.56
2022-09-14T20:54:48.245Z,99696.72
2022-09-14T20:57:19.604Z,99673.69
2022-09-14T20:59:50.892Z,99668.69
2022-09-14T21:02:22.263Z,99694.91
2022-09-14T21:04:53.570Z,99700.25
2022-09-14T21:07:25.482Z,99686.47
2022-09-14T21:09:56.877Z,99710.16
2022-09-14T21:12:28.297Z,99698.03
2022-09-14T21:14:59.628Z,99682.47
2022-09-14T21:17:30.987Z,99677.41
2022-09-14T21:20:03.330Z,99668.88
2022-09-14T21:22:34.761Z,99686.56
2022-09-14T21:25:06.808Z,99698.69
2022-09-14T21:27:38.108Z,99703.22
2022-09-14T21:30:09.798Z,99686.03
2022-09-14T21:32:46.059Z,99679.06
2022-09-14T21:35:18.919Z,99688.56
2022-09-14T21:37:51.328Z,99645.44
2022-09-14T21:40:23.436Z,99689.72
2022-09-14T21:42:54.837Z,99686.56
2022-09-14T21:45:26.139Z,99685.78
2022-09-14T21:47:57.529Z,99670.19
2022-09-14T21:50:28.826Z,99693.75
2022-09-14T21:53:00.132Z,99666.72
2022-09-14T21:55:32.306Z,99679.09
2022-09-14T21:58:03.692Z,99639.41
2022-09-14T22:00:35.231Z,99680.34
2022-09-14T22:03:06.886Z,99681.31
2022-09-14T22:05:38.638Z,99676.25
2022-09-14T22:08:10.270Z,99670.19
2022-09-14T22:10:41.570Z,99690.59
2022-09-14T22:13:12.925Z,99679.47
2022-09-14T22:15:44.410Z,99629.25
2022-09-14T22:18:22.771Z,99626.78
2022-09-14T22:21:00.541Z,99663.31
2022-09-14T22:23:33.925Z,99665.06
2022-09-14T22:26:09.197Z,99666.91
2022-09-14T22:28:40.830Z,99678.34
2022-09-14T22:31:12.369Z,99674.94
2022-09-14T22:33:43.913Z,99676.69
2022-09-14T22:36:15.613Z,99669.75
2022-09-14T22:38:47.155Z,99655.16
2022-09-14T22:41:22.150Z,99635.22
2022-09-14T22:43:54.275Z,99633.56
2022-09-14T22:46:26.122Z,99634.56
2022-09-14T22:48:57.568Z,99662.19
2022-09-14T22:51:29.705Z,99637.72
2022-09-14T22:54:01.925Z,99646.50
2022-09-14T22:56:36.898Z,99652.56
2022-09-14T22:59:09.711Z,99636.97
2022-09-14T23:01:41.907Z,99640.75
2022-09-14T23:04:14.229Z,99645.13
2022-09-14T23:06:49.454Z,99646.66
2022-09-14T23:09:22.153Z,99605.41
2022-09-14T23:11:53.689Z,99642.78
2022-09-14T23:14:25.225Z,99647.22
2022-09-14T23:16:56.686Z,99651.59
2022-09-14T23:19:29.266Z,99647.41
2022-09-14T23:22:01.398Z,99641.38
2022-09-14T23:24:32.887Z,99647.41
2022-09-14T23:27:04.461Z,99644.03
2022-09-14T23:29:35.822Z,99650.28
2022-09-14T23:32:07.220Z,99643.28
2022-09-14T23:34:38.517Z,99638.16
2022-09-14T23:37:10.003Z,99643.22
2022-09-14T23:39:41.498Z,99628.56
2022-09-14T23:42:14.080Z,99589.53
2022-09-14T23:44:46.404Z,99624.81
2022-09-14T23:47:18.237Z,99566.81
2022-09-14T23:49:49.698Z,99612.69
2022-09-14T23:52:20.995Z,99617.03
2022-09-14T23:54:52.444Z,99621.34
2022-09-14T23:57:24.122Z,99623.94
2022-09-14T23:59:55.491Z,99607.50
